Grand Valley, Canada
Current Conditions -  °F | °C
As of 7:00 AM on Thursday 29 Jan 2015 (Local Time) from CYKF Reporting Station
Overcast Overcast  
Wind Chill:   Ceiling: 7500
Heat Index: 21°   Visibility: 9mi
Dew Point: 12°   Wind: 12mph
Humidity: 68%   Direction: 130°SE
Pressure: 29.99"   Gusts: NA
Location:  43.9°N, 80.32°W
Report Text: CYKF 291200Z AUTO 13010KT 9SM FEW024 OVC075 M06/M11 A2999 RMK PRESFR SLP175
Loading
Personal Weather Stations






























Interactive Weather Map New forecast layout! Learn more

10-Day Weather Forecast

Advertisements
Track Severe Weather on mobile